Terminal Aerodrome Forecast
Issued by NWS Sterling, VA

Current Version | Previous Version | Graphics & Text | Print | Product List | Glossary On
Versions: 1 2 3 4 5 6 7 8 9 10 11 12 13 14
000
FTUS41 KLWX 200600 AAA
TAFMRB
TAF AMD
KMRB 200603Z 2006/2106 21007KT P6SM BKN090
     FM200900 23007KT P6SM SCT090
     FM201000 24006KT P6SM BKN090
     FM201500 27011G21KT P6SM SCT250
     FM202100 27011KT P6SM FEW250=

USA.gov is the U.S. government's official web portal to all federal, state and local government web resources and services.